Time;durP1;ratioP1;P1;durP2;ratioP2;P2;SDS_P1;SDS_P2;PMS_P1;PMS_P2;Temp;Humidity;BMP_temperature;BMP_pressure;BME280_temperature;BME280_humidity;BME280_pressure;Samples;Min_cycle;Max_cycle;Signal;HPM_P1;HPM_P2
2022/05/01 00:00:58;;;;;;;10.35;6.18;;;;;;;;;;4943716;28;20050;-80
2022/05/01 00:03:33;;;;;;;10.35;6.20;;;;;;;;;;4963826;28;20521;-80
2022/05/01 00:06:04;;;;;;;10.75;5.90;;;;;;;;;;4961787;28;20046;-80
2022/05/01 00:08:29;;;;;;;9.40;5.50;;;;;;;;;;4958411;28;20050;-80
2022/05/01 00:10:54;;;;;;;10.10;5.60;;;;;;;;;;4944206;28;20035;-80
2022/05/01 00:13:21;;;;;;;9.18;5.13;;;;;;;;;;4968846;28;20034;-81
2022/05/01 00:15:47;;;;;;;10.55;5.38;;;;;;;;;;4967091;28;20043;-81
2022/05/01 00:18:12;;;;;;;8.90;4.82;;;;;;;;;;4943134;28;20074;-81
2022/05/01 00:20:37;;;;;;;9.00;4.88;;;;;;;;;;4961587;28;20117;-81
2022/05/01 00:23:03;;;;;;;9.77;4.70;;;;;;;;;;4947214;28;20038;-80
2022/05/01 00:25:31;;;;;;;9.82;4.30;;;;;;;;;;4962405;28;20042;-80
2022/05/01 00:27:57;;;;;;;7.28;4.60;;;;;;;;;;4975421;28;20038;-81
2022/05/01 00:30:22;;;;;;;7.43;4.15;;;;;;;;;;4966704;28;20038;-80
2022/05/01 00:38:15;;;;;;;10.25;4.68;;;;;;;;;;4964984;28;20521;-80
2022/05/01 00:40:40;;;;;;;7.28;3.75;;;;;;;;;;4959556;28;20034;-80
2022/05/01 00:43:06;;;;;;;8.60;4.22;;;;;;;;;;4962277;28;20476;-76
2022/05/01 00:45:34;;;;;;;8.73;4.15;;;;;;;;;;4944442;28;20447;-78
2022/05/01 00:47:59;;;;;;;;;;;;;;;;;;4962430;28;20072;-78
2022/05/01 00:50:25;;;;;;;7.75;3.85;;;;;;;;;;4960818;28;19957;-79
2022/05/01 00:52:51;;;;;;;8.30;3.83;;;;;;;;;;4963265;28;20113;-78
2022/05/01 00:55:16;;;;;;;9.10;3.92;;;;;;;;;;4943822;28;20110;-80
2022/05/01 00:57:43;;;;;;;9.77;4.07;;;;;;;;;;4947789;28;20122;-77
2022/05/01 01:00:09;;;;;;;9.93;3.97;;;;;;;;;;4943663;28;20462;-79
2022/05/01 01:02:34;;;;;;;7.07;3.80;;;;;;;;;;4943809;28;20037;-78
2022/05/01 01:04:59;;;;;;;8.15;4.10;;;;;;;;;;4945713;28;20393;-78
2022/05/01 01:07:28;;;;;;;9.10;3.95;;;;;;;;;;4961590;28;20062;-77
2022/05/01 01:09:53;;;;;;;9.13;4.18;;;;;;;;;;4942150;28;20042;-78
2022/05/01 01:15:12;;;;;;;5.90;3.97;;;;;;;;;;4960558;28;20042;-78
2022/05/01 01:17:41;;;;;;;10.02;4.13;;;;;;;;;;4963072;28;20038;-78
2022/05/01 01:20:21;;;;;;;8.65;3.92;;;;;;;;;;4952300;28;20037;-79
2022/05/01 01:22:47;;;;;;;9.20;3.60;;;;;;;;;;4960887;28;20026;-78
2022/05/01 01:25:13;;;;;;;8.45;4.18;;;;;;;;;;4958663;28;20596;-78
2022/05/01 01:27:39;;;;;;;10.02;4.32;;;;;;;;;;4958035;28;20122;-80
2022/05/01 01:32:51;;;;;;;8.80;3.95;;;;;;;;;;4967805;28;20036;-77
2022/05/01 01:35:29;;;;;;;9.13;3.90;;;;;;;;;;4943250;28;20047;-77
2022/05/01 01:37:55;;;;;;;9.45;4.45;;;;;;;;;;4975165;28;20038;-77
2022/05/01 01:40:23;;;;;;;8.15;4.00;;;;;;;;;;4957831;28;20050;-78
2022/05/01 01:42:50;;;;;;;9.90;4.07;;;;;;;;;;4972802;28;20186;-78
2022/05/01 01:45:17;;;;;;;11.30;4.60;;;;;;;;;;4941173;28;20555;-78
2022/05/01 01:47:44;;;;;;;7.77;3.90;;;;;;;;;;4951050;28;20034;-78
2022/05/01 01:50:11;;;;;;;6.95;3.80;;;;;;;;;;4949114;28;20273;-79
2022/05/01 01:52:37;;;;;;;7.53;4.18;;;;;;;;;;4946963;28;20130;-78
2022/05/01 01:55:02;;;;;;;7.90;4.10;;;;;;;;;;4941306;28;20059;-78
2022/05/01 01:57:27;;;;;;;7.15;3.97;;;;;;;;;;4972884;28;20046;-78
2022/05/01 01:59:53;;;;;;;8.02;3.88;;;;;;;;;;4972244;28;20038;-77
2022/05/01 02:02:18;;;;;;;7.10;4.00;;;;;;;;;;4956386;28;20081;-78
2022/05/01 02:04:43;;;;;;;9.57;4.32;;;;;;;;;;4957179;28;20474;-79
2022/05/01 02:07:09;;;;;;;8.07;3.75;;;;;;;;;;4959426;28;20038;-78
2022/05/01 02:09:37;;;;;;;8.45;4.55;;;;;;;;;;4964890;28;20135;-78
2022/05/01 02:12:06;;;;;;;8.50;4.15;;;;;;;;;;4947702;28;20557;-79
2022/05/01 02:14:33;;;;;;;7.65;3.90;;;;;;;;;;4966571;28;20544;-79
2022/05/01 02:16:58;;;;;;;8.68;4.25;;;;;;;;;;4944298;28;20046;-78
2022/05/01 02:19:24;;;;;;;10.02;3.92;;;;;;;;;;4957971;28;20035;-78
2022/05/01 02:21:49;;;;;;;7.43;3.75;;;;;;;;;;4956859;28;20055;-79
2022/05/01 02:24:14;;;;;;;7.93;4.00;;;;;;;;;;4960379;28;20046;-78
2022/05/01 02:26:39;;;;;;;9.48;3.97;;;;;;;;;;4949875;28;20057;-78
2022/05/01 02:29:10;;;;;;;8.43;4.00;;;;;;;;;;4961416;28;20042;-78
2022/05/01 02:31:40;;;;;;;8.77;4.15;;;;;;;;;;4955567;28;20069;-79
2022/05/01 02:34:05;;;;;;;7.18;3.53;;;;;;;;;;4949792;28;20045;-77
2022/05/01 02:36:31;;;;;;;7.20;3.80;;;;;;;;;;4971120;28;20038;-77
2022/05/01 02:38:56;;;;;;;8.05;3.60;;;;;;;;;;4949538;28;20046;-77
2022/05/01 02:41:22;;;;;;;9.65;3.70;;;;;;;;;;4942558;28;20124;-78
2022/05/01 02:43:47;;;;;;;7.88;3.58;;;;;;;;;;4963358;28;20031;-78
2022/05/01 02:46:14;;;;;;;6.82;3.80;;;;;;;;;;4948591;28;20073;-81
2022/05/01 02:48:39;;;;;;;8.65;3.90;;;;;;;;;;4958719;28;20410;-80
2022/05/01 02:51:04;;;;;;;6.53;4.00;;;;;;;;;;4963233;28;20038;-81
2022/05/01 02:53:31;;;;;;;9.68;4.43;;;;;;;;;;4951282;28;20058;-81
2022/05/01 02:56:00;;;;;;;9.23;4.88;;;;;;;;;;4945089;28;20031;-81
2022/05/01 02:58:31;;;;;;;8.65;4.20;;;;;;;;;;4959365;28;20452;-81
2022/05/01 03:00:57;;;;;;;6.75;4.22;;;;;;;;;;4957061;28;20039;-80
2022/05/01 03:03:23;;;;;;;9.50;4.45;;;;;;;;;;4943827;28;20066;-80
2022/05/01 03:05:51;;;;;;;8.93;4.53;;;;;;;;;;4942101;28;20047;-80
2022/05/01 03:08:17;;;;;;;;;;;;;;;;;;4960113;28;20038;-80
2022/05/01 03:10:43;;;;;;;7.90;4.17;;;;;;;;;;4960657;28;19925;-81
2022/05/01 03:13:08;;;;;;;12.20;4.50;;;;;;;;;;4948724;28;20039;-81
2022/05/01 03:15:33;;;;;;;7.07;4.20;;;;;;;;;;4958291;28;20034;-81
2022/05/01 03:23:26;;;;;;;11.25;4.25;;;;;;;;;;4958411;28;20509;-81
2022/05/01 03:25:51;;;;;;;9.55;4.07;;;;;;;;;;4959562;28;20050;-80
2022/05/01 03:28:17;;;;;;;6.85;4.00;;;;;;;;;;4941010;28;20134;-78
2022/05/01 03:30:42;;;;;;;7.90;4.22;;;;;;;;;;4970595;28;20062;-78
2022/05/01 03:33:07;;;;;;;6.57;4.03;;;;;;;;;;4956241;28;20039;-78
2022/05/01 03:35:36;;;;;;;8.35;3.80;;;;;;;;;;4946401;28;20039;-78
2022/05/01 03:38:03;;;;;;;8.73;3.65;;;;;;;;;;4941666;28;20093;-78
2022/05/01 03:40:28;;;;;;;8.95;4.40;;;;;;;;;;4949290;28;20031;-78
2022/05/01 03:42:54;;;;;;;8.30;4.10;;;;;;;;;;4962064;28;20036;-78
2022/05/01 03:45:22;;;;;;;7.60;3.45;;;;;;;;;;4964899;28;20042;-78
2022/05/01 03:47:48;;;;;;;7.35;3.80;;;;;;;;;;4967538;28;20031;-78
2022/05/01 03:50:13;;;;;;;8.32;3.80;;;;;;;;;;4966725;28;20035;-79
2022/05/01 03:52:38;;;;;;;8.48;4.15;;;;;;;;;;4947627;28;20117;-79
2022/05/01 03:55:04;;;;;;;7.40;4.53;;;;;;;;;;4959581;28;20050;-79
2022/05/01 03:57:32;;;;;;;8.20;3.65;;;;;;;;;;4969794;28;20376;-79
2022/05/01 03:59:58;;;;;;;9.00;4.22;;;;;;;;;;4962909;28;20049;-77
2022/05/01 04:02:23;;;;;;;12.02;4.28;;;;;;;;;;4945883;28;20860;-77
2022/05/01 04:04:49;;;;;;;6.47;4.38;;;;;;;;;;4967440;28;20037;-77
2022/05/01 04:07:14;;;;;;;7.50;4.43;;;;;;;;;;4944824;28;20046;-79
2022/05/01 04:09:40;;;;;;;10.35;4.40;;;;;;;;;;4960375;28;20501;-78
2022/05/01 04:12:06;;;;;;;7.82;4.25;;;;;;;;;;4944532;28;20057;-79
2022/05/01 04:14:32;;;;;;;7.93;4.47;;;;;;;;;;4961363;28;20482;-78
2022/05/01 04:16:59;;;;;;;10.48;5.03;;;;;;;;;;4972983;28;20038;-77
2022/05/01 04:19:25;;;;;;;7.17;4.20;;;;;;;;;;4950766;28;20472;-78
2022/05/01 04:21:50;;;;;;;9.25;5.00;;;;;;;;;;4966979;28;20437;-76
2022/05/01 04:24:15;;;;;;;10.95;5.10;;;;;;;;;;4963013;28;20498;-77
2022/05/01 04:26:40;;;;;;;10.07;4.72;;;;;;;;;;4968127;28;20031;-78
2022/05/01 04:31:50;;;;;;;7.60;4.15;;;;;;;;;;4959223;28;20038;-79
2022/05/01 04:34:15;;;;;;;7.53;4.45;;;;;;;;;;4958652;28;20046;-77
2022/05/01 04:36:41;;;;;;;9.82;4.50;;;;;;;;;;4973976;28;20045;-80
2022/05/01 04:39:06;;;;;;;7.47;4.72;;;;;;;;;;4946754;28;20035;-80
2022/05/01 04:41:31;;;;;;;9.13;4.45;;;;;;;;;;4942252;28;20073;-80
2022/05/01 04:43:57;;;;;;;7.93;4.20;;;;;;;;;;4957279;28;20045;-80
2022/05/01 04:46:22;;;;;;;6.80;4.15;;;;;;;;;;4951908;28;20034;-80
2022/05/01 04:48:50;;;;;;;9.02;4.35;;;;;;;;;;4975624;28;20049;-80
2022/05/01 04:51:15;;;;;;;8.60;4.70;;;;;;;;;;4966991;28;20600;-80
2022/05/01 04:53:41;;;;;;;9.05;4.20;;;;;;;;;;4944550;28;20121;-81
2022/05/01 04:58:50;;;;;;;8.40;4.63;;;;;;;;;;4960016;28;20136;-80
2022/05/01 05:01:15;;;;;;;8.75;4.63;;;;;;;;;;4960906;28;20066;-80
2022/05/01 05:03:41;;;;;;;7.90;4.10;;;;;;;;;;4945946;28;20081;-80
2022/05/01 05:06:06;;;;;;;7.13;4.20;;;;;;;;;;4951150;28;20065;-81
2022/05/01 05:11:16;;;;;;;6.32;4.00;;;;;;;;;;4973542;28;20045;-80
2022/05/01 05:13:42;;;;;;;7.20;3.90;;;;;;;;;;4965464;28;20035;-80
2022/05/01 05:16:12;;;;;;;6.53;3.70;;;;;;;;;;4961828;28;20038;-80
2022/05/01 05:18:39;;;;;;;12.02;3.95;;;;;;;;;;4944483;28;20065;-81
2022/05/01 05:21:05;;;;;;;6.33;3.30;;;;;;;;;;4961718;28;20097;-80
2022/05/01 05:23:31;;;;;;;6.05;3.42;;;;;;;;;;4944657;28;20038;-80
2022/05/01 05:25:56;;;;;;;8.93;3.45;;;;;;;;;;4951016;28;20483;-80
2022/05/01 05:28:21;;;;;;;6.35;3.20;;;;;;;;;;4941720;28;20058;-80
2022/05/01 05:30:48;;;;;;;7.25;3.40;;;;;;;;;;4973205;28;20034;-80
2022/05/01 05:33:14;;;;;;;9.10;3.42;;;;;;;;;;4963890;28;20034;-80
2022/05/01 05:35:39;;;;;;;7.88;3.70;;;;;;;;;;4961331;28;20560;-80
2022/05/01 05:38:05;;;;;;;7.13;3.22;;;;;;;;;;4941879;28;20573;-80
2022/05/01 05:40:30;;;;;;;7.53;3.05;;;;;;;;;;4956478;28;20091;-81
2022/05/01 05:42:55;;;;;;;6.80;2.90;;;;;;;;;;4973783;28;20495;-80
2022/05/01 05:45:21;;;;;;;6.53;3.15;;;;;;;;;;4939951;28;20129;-79
2022/05/01 05:47:46;;;;;;;8.35;3.28;;;;;;;;;;4947784;28;20038;-81
2022/05/01 05:50:11;;;;;;;7.88;3.33;;;;;;;;;;4941834;28;20038;-80
2022/05/01 05:52:37;;;;;;;7.93;3.53;;;;;;;;;;4947757;28;20502;-81
2022/05/01 05:55:02;;;;;;;5.55;3.08;;;;;;;;;;4957281;28;20062;-80
2022/05/01 05:57:27;;;;;;;5.25;3.13;;;;;;;;;;4955781;28;20046;-80
2022/05/01 05:59:53;;;;;;;7.30;3.38;;;;;;;;;;4960017;28;20449;-79
2022/05/01 06:02:21;;;;;;;6.50;3.08;;;;;;;;;;4943968;28;20035;-79
2022/05/01 06:04:46;;;;;;;6.70;3.15;;;;;;;;;;4974039;28;20035;-79
2022/05/01 06:07:11;;;;;;;6.95;3.00;;;;;;;;;;4965750;28;20582;-79
2022/05/01 06:09:36;;;;;;;6.45;3.33;;;;;;;;;;4975671;28;20030;-79
2022/05/01 06:12:02;;;;;;;6.20;3.08;;;;;;;;;;4960503;28;20038;-81
2022/05/01 06:14:28;;;;;;;6.30;3.13;;;;;;;;;;4957753;28;20053;-81
2022/05/01 06:16:53;;;;;;;7.80;3.30;;;;;;;;;;4942542;28;20038;-82
2022/05/01 06:19:21;;;;;;;6.65;3.08;;;;;;;;;;4959597;28;20045;-81
2022/05/01 06:21:46;;;;;;;6.63;2.95;;;;;;;;;;4960165;28;20034;-81
2022/05/01 06:24:12;;;;;;;9.82;2.97;;;;;;;;;;4964616;28;20506;-81
2022/05/01 06:26:37;;;;;;;8.50;3.15;;;;;;;;;;4945129;28;20049;-82
2022/05/01 06:29:02;;;;;;;7.00;3.47;;;;;;;;;;4949463;28;20034;-81
2022/05/01 06:31:28;;;;;;;7.30;3.35;;;;;;;;;;4945580;28;20113;-81
2022/05/01 06:33:54;;;;;;;6.38;3.33;;;;;;;;;;4942489;28;20045;-81
2022/05/01 06:36:20;;;;;;;6.57;3.45;;;;;;;;;;4964667;28;20133;-81
2022/05/01 06:38:45;;;;;;;6.45;3.40;;;;;;;;;;4946770;28;20117;-80
2022/05/01 06:41:11;;;;;;;7.05;3.30;;;;;;;;;;4957391;28;20058;-81
2022/05/01 06:43:36;;;;;;;5.65;3.10;;;;;;;;;;4964563;28;20483;-81
2022/05/01 06:46:02;;;;;;;8.07;3.50;;;;;;;;;;4943184;28;20508;-82
2022/05/01 06:48:27;;;;;;;6.38;3.25;;;;;;;;;;4954842;28;20060;-81
2022/05/01 06:50:52;;;;;;;5.60;3.20;;;;;;;;;;4956029;28;20105;-82
2022/05/01 06:53:18;;;;;;;8.52;3.10;;;;;;;;;;4943126;28;20450;-83
2022/05/01 06:55:44;;;;;;;9.70;3.40;;;;;;;;;;4947160;28;20045;-84
2022/05/01 06:58:09;;;;;;;7.57;3.20;;;;;;;;;;4943212;28;20082;-84
2022/05/01 07:00:34;;;;;;;6.72;3.30;;;;;;;;;;4947032;28;20452;-83
2022/05/01 07:03:00;;;;;;;9.43;3.53;;;;;;;;;;4958590;28;20117;-83
2022/05/01 07:05:25;;;;;;;7.22;3.38;;;;;;;;;;4954671;28;20122;-83
2022/05/01 07:07:51;;;;;;;8.00;3.08;;;;;;;;;;4943093;28;20174;-83
2022/05/01 07:10:18;;;;;;;7.68;2.80;;;;;;;;;;4941830;28;20082;-84
2022/05/01 07:12:43;;;;;;;6.78;2.75;;;;;;;;;;4949049;28;20550;-83
2022/05/01 07:15:29;;;;;;;5.68;3.25;;;;;;;;;;4971445;28;20130;-84
2022/05/01 07:17:55;;;;;;;7.72;3.03;;;;;;;;;;4870608;29;21197;-84
2022/05/01 07:20:20;;;;;;;7.75;3.40;;;;;;;;;;4866061;29;20045;-83
2022/05/01 07:22:45;;;;;;;9.13;3.38;;;;;;;;;;4865156;29;20086;-82
2022/05/01 07:25:11;;;;;;;6.43;3.00;;;;;;;;;;4867424;29;20089;-83
2022/05/01 07:27:36;;;;;;;6.72;3.17;;;;;;;;;;4871827;29;20047;-82
2022/05/01 07:30:02;;;;;;;6.50;3.33;;;;;;;;;;4864096;29;20048;-83
2022/05/01 07:32:27;;;;;;;8.38;3.72;;;;;;;;;;4880156;29;20508;-83
2022/05/01 07:34:52;;;;;;;8.75;3.60;;;;;;;;;;4881458;29;20482;-85
2022/05/01 07:37:20;;;;;;;7.72;3.80;;;;;;;;;;4866426;29;20400;-84
2022/05/01 07:39:45;;;;;;;9.70;4.20;;;;;;;;;;4858586;29;20037;-83
2022/05/01 07:42:11;;;;;;;8.52;3.70;;;;;;;;;;4857596;29;20065;-81
2022/05/01 07:44:36;;;;;;;7.53;3.13;;;;;;;;;;4881570;29;20045;-79
2022/05/01 07:47:01;;;;;;;7.18;3.03;;;;;;;;;;4866315;29;20120;-80
2022/05/01 07:49:27;;;;;;;6.00;3.25;;;;;;;;;;4881262;29;20056;-80
2022/05/01 07:51:52;;;;;;;6.47;3.30;;;;;;;;;;4879429;29;20037;-80
2022/05/01 07:54:17;;;;;;;7.30;3.72;;;;;;;;;;4894769;28;20049;-80
2022/05/01 07:56:43;;;;;;;6.55;3.30;;;;;;;;;;4962419;28;20501;-81
2022/05/01 07:59:08;;;;;;;5.85;3.00;;;;;;;;;;4968914;28;20129;-81
2022/05/01 08:01:34;;;;;;;10.23;3.05;;;;;;;;;;4952504;28;20066;-80
2022/05/01 08:06:43;;;;;;;9.23;3.30;;;;;;;;;;4974142;28;20467;-80
2022/05/01 08:09:10;;;;;;;6.70;3.30;;;;;;;;;;4964525;28;20396;-81
2022/05/01 08:11:35;;;;;;;7.75;3.08;;;;;;;;;;4946547;28;20039;-81
2022/05/01 08:14:01;;;;;;;5.93;3.20;;;;;;;;;;4962230;28;20053;-79
2022/05/01 08:16:26;;;;;;;7.60;3.10;;;;;;;;;;4958755;28;20035;-79
2022/05/01 08:21:36;;;;;;;6.70;3.47;;;;;;;;;;4961796;28;20046;-79
2022/05/01 08:24:02;;;;;;;6.38;2.97;;;;;;;;;;4952408;28;20506;-78
2022/05/01 08:26:31;;;;;;;7.30;2.75;;;;;;;;;;4975906;28;20042;-80
2022/05/01 08:28:56;;;;;;;6.88;2.90;;;;;;;;;;4957151;28;20058;-80
2022/05/01 08:31:21;;;;;;;5.80;2.70;;;;;;;;;;4954168;28;20475;-80
2022/05/01 08:33:47;;;;;;;6.20;2.95;;;;;;;;;;4944131;28;20041;-79
2022/05/01 08:36:13;;;;;;;7.68;3.13;;;;;;;;;;4965635;28;20148;-80
2022/05/01 08:38:38;;;;;;;8.75;2.85;;;;;;;;;;4954077;28;20038;-82
2022/05/01 08:41:05;;;;;;;7.85;2.95;;;;;;;;;;4963454;28;20034;-79
2022/05/01 08:43:31;;;;;;;6.43;3.17;;;;;;;;;;4964262;28;20112;-79
2022/05/01 08:46:16;;;;;;;5.97;3.13;;;;;;;;;;4963314;28;20038;-80
2022/05/01 08:49:06;;;;;;;6.78;2.80;;;;;;;;;;4969482;28;20038;-79
2022/05/01 08:51:40;;;;;;;6.05;2.85;;;;;;;;;;4962650;28;20041;-79
2022/05/01 08:54:08;;;;;;;4.80;2.53;;;;;;;;;;4976786;28;20065;-80
2022/05/01 08:56:34;;;;;;;7.82;2.92;;;;;;;;;;4965918;28;20038;-79
2022/05/01 08:59:09;;;;;;;9.75;2.97;;;;;;;;;;4960555;28;20382;-79
2022/05/01 09:01:35;;;;;;;5.80;2.92;;;;;;;;;;4963067;28;20118;-79
2022/05/01 09:04:01;;;;;;;5.53;2.40;;;;;;;;;;4964115;28;20091;-78
2022/05/01 09:06:28;;;;;;;6.95;2.70;;;;;;;;;;4966562;28;20145;-79
2022/05/01 09:08:53;;;;;;;11.18;2.92;;;;;;;;;;4963979;28;20043;-80
2022/05/01 09:14:04;;;;;;;5.40;2.47;;;;;;;;;;4963445;28;20561;-79
2022/05/01 09:16:29;;;;;;;6.38;2.80;;;;;;;;;;4962070;28;20030;-79
2022/05/01 09:18:54;;;;;;;5.60;2.50;;;;;;;;;;4945449;28;20970;-79
2022/05/01 09:21:20;;;;;;;8.52;3.17;;;;;;;;;;4975507;28;20045;-80
2022/05/01 09:23:46;;;;;;;4.68;2.38;;;;;;;;;;4960942;28;20054;-80
2022/05/01 09:26:13;;;;;;;6.88;2.42;;;;;;;;;;4963354;28;20037;-81
2022/05/01 09:28:53;;;;;;;6.18;2.67;;;;;;;;;;4957608;28;20035;-80
2022/05/01 09:31:46;;;;;;;5.55;2.42;;;;;;;;;;4955272;28;20031;-78
2022/05/01 09:34:25;;;;;;;6.10;2.60;;;;;;;;;;4942184;28;20046;-76
2022/05/01 09:36:51;;;;;;;5.50;2.33;;;;;;;;;;4958252;28;20089;-79
2022/05/01 09:39:22;;;;;;;6.28;2.33;;;;;;;;;;4973716;28;20037;-79
2022/05/01 09:41:51;;;;;;;7.35;2.33;;;;;;;;;;4943034;28;20498;-79
2022/05/01 09:44:17;;;;;;;8.18;2.30;;;;;;;;;;4974131;28;20039;-79
2022/05/01 09:46:50;;;;;;;6.43;2.35;;;;;;;;;;4956049;28;20042;-81
2022/05/01 09:49:17;;;;;;;5.47;2.10;;;;;;;;;;4958572;28;20085;-80
2022/05/01 09:51:47;;;;;;;5.03;2.10;;;;;;;;;;4948821;28;20100;-80
2022/05/01 09:54:26;;;;;;;4.75;1.90;;;;;;;;;;4948615;28;20054;-79
2022/05/01 09:56:54;;;;;;;5.15;1.98;;;;;;;;;;4941184;28;20038;-79
2022/05/01 09:59:21;;;;;;;6.80;1.83;;;;;;;;;;4943163;28;20116;-78
2022/05/01 10:01:57;;;;;;;3.88;1.65;;;;;;;;;;4959101;28;20077;-80
2022/05/01 10:04:26;;;;;;;5.18;1.73;;;;;;;;;;4930236;28;20038;-81
2022/05/01 10:07:01;;;;;;;5.13;1.70;;;;;;;;;;4944209;28;20104;-82
2022/05/01 10:09:32;;;;;;;4.43;1.75;;;;;;;;;;4940746;28;20038;-81
2022/05/01 10:12:03;;;;;;;6.68;1.70;;;;;;;;;;4949976;28;20816;-80
2022/05/01 10:14:28;;;;;;;5.72;1.63;;;;;;;;;;4972932;28;20046;-80
2022/05/01 10:16:54;;;;;;;2.92;1.40;;;;;;;;;;4957234;28;20082;-80
2022/05/01 10:19:20;;;;;;;4.22;1.58;;;;;;;;;;4974687;28;20490;-79
2022/05/01 10:21:47;;;;;;;6.18;1.45;;;;;;;;;;4956967;28;20100;-79
2022/05/01 10:24:13;;;;;;;6.63;1.65;;;;;;;;;;4955527;28;20043;-78
2022/05/01 10:26:44;;;;;;;6.55;1.75;;;;;;;;;;4949401;28;20046;-80
2022/05/01 10:33:05;;;;;;;3.42;1.30;;;;;;;;;;4924801;28;20045;-79
2022/05/01 10:36:09;;;;;;;5.57;1.60;;;;;;;;;;4968759;28;20038;-80
2022/05/01 10:38:41;;;;;;;5.80;1.88;;;;;;;;;;4972391;28;20035;-80
2022/05/01 10:41:07;;;;;;;8.68;3.17;;;;;;;;;;4971556;28;20117;-80
2022/05/01 10:43:37;;;;;;;7.55;2.70;;;;;;;;;;4972344;28;20701;-80
2022/05/01 10:46:21;;;;;;;5.90;2.10;;;;;;;;;;4943595;28;20035;-80
2022/05/01 10:48:47;;;;;;;4.03;2.17;;;;;;;;;;4972320;28;20038;-80
2022/05/01 10:51:27;;;;;;;5.20;1.77;;;;;;;;;;4959305;28;20494;-79
2022/05/01 10:54:12;;;;;;;4.13;1.70;;;;;;;;;;4956582;28;20128;-79
2022/05/01 10:56:38;;;;;;;5.22;1.80;;;;;;;;;;4974234;28;20066;-80
2022/05/01 10:59:34;;;;;;;4.43;1.58;;;;;;;;;;4964624;28;20120;-80
2022/05/01 11:02:07;;;;;;;3.90;1.55;;;;;;;;;;4974057;28;20030;-80
2022/05/01 11:04:36;;;;;;;5.15;1.63;;;;;;;;;;4962926;28;20041;-81
2022/05/01 11:07:03;;;;;;;4.35;1.60;;;;;;;;;;4972262;28;20469;-80
2022/05/01 11:09:31;;;;;;;6.68;1.55;;;;;;;;;;4948811;28;20035;-80
2022/05/01 11:11:58;;;;;;;5.13;1.60;;;;;;;;;;4964918;28;20074;-81
2022/05/01 11:15:02;;;;;;;5.53;1.58;;;;;;;;;;4940837;28;20038;-80
2022/05/01 11:17:36;;;;;;;5.35;1.30;;;;;;;;;;4952054;28;20051;-80
2022/05/01 11:20:23;;;;;;;5.53;1.70;;;;;;;;;;4972329;28;20454;-80
2022/05/01 11:22:49;;;;;;;4.07;1.70;;;;;;;;;;4939256;28;20041;-80
2022/05/01 11:25:37;;;;;;;4.82;1.80;;;;;;;;;;4965344;28;20809;-79
2022/05/01 11:28:03;;;;;;;3.75;1.38;;;;;;;;;;4965484;28;20557;-80
2022/05/01 11:30:29;;;;;;;4.38;1.63;;;;;;;;;;4960566;28;20043;-80
2022/05/01 11:33:00;;;;;;;4.40;1.70;;;;;;;;;;4972750;28;20089;-80
2022/05/01 11:36:05;;;;;;;8.05;2.10;;;;;;;;;;4955847;28;20050;-80
2022/05/01 11:38:32;;;;;;;4.10;1.50;;;;;;;;;;4934741;28;20051;-80
2022/05/01 11:41:00;;;;;;;;;;;;;;;;;;4945285;28;20118;-81
2022/05/01 11:43:28;;;;;;;6.50;2.00;;;;;;;;;;4918651;28;19918;-79
2022/05/01 11:45:53;;;;;;;;;;;;;;;;;;4922535;28;20035;-80
2022/05/01 11:48:20;;;;;;;5.95;1.90;;;;;;;;;;4933023;28;20297;-80
2022/05/01 11:50:50;;;;;;;4.75;1.83;;;;;;;;;;4922819;28;20118;-80
2022/05/01 11:53:20;;;;;;;6.28;1.80;;;;;;;;;;4917740;28;20094;-80
2022/05/01 12:04:31;;;;;;;8.75;3.78;;;;;;;;;;4938699;28;20045;-80
2022/05/01 12:07:20;;;;;;;6.38;2.38;;;;;;;;;;4921892;28;20054;-79
2022/05/01 12:09:46;;;;;;;7.90;3.42;;;;;;;;;;4936906;28;20042;-80
2022/05/01 12:12:14;;;;;;;6.28;2.72;;;;;;;;;;4960358;28;20073;-80
2022/05/01 12:14:40;;;;;;;4.55;2.20;;;;;;;;;;4975229;28;20145;-80
2022/05/01 12:17:07;;;;;;;5.60;2.15;;;;;;;;;;4961593;28;20634;-81
2022/05/01 12:19:37;;;;;;;4.95;1.98;;;;;;;;;;4961922;28;20077;-80
2022/05/01 12:22:04;;;;;;;5.40;2.17;;;;;;;;;;4973480;28;20034;-80
2022/05/01 12:24:29;;;;;;;34.97;10.48;;;;;;;;;;4960625;28;20121;-81
2022/05/01 12:26:55;;;;;;;39.80;13.15;;;;;;;;;;4944018;28;20430;-81
2022/05/01 12:29:21;;;;;;;6.35;2.78;;;;;;;;;;4946273;28;20047;-80
2022/05/01 12:32:02;;;;;;;15.82;5.93;;;;;;;;;;4962101;28;20153;-80
2022/05/01 12:34:32;;;;;;;6.93;2.75;;;;;;;;;;4959197;28;20491;-80
2022/05/01 12:37:02;;;;;;;6.40;2.05;;;;;;;;;;4959069;28;20042;-80
2022/05/01 12:39:28;;;;;;;7.45;2.33;;;;;;;;;;4943446;28;20050;-80
2022/05/01 12:45:09;;;;;;;4.43;1.90;;;;;;;;;;4967295;28;20041;-79
2022/05/01 12:47:39;;;;;;;5.72;2.20;;;;;;;;;;4961953;28;20042;-78
2022/05/01 12:50:26;;;;;;;3.38;1.70;;;;;;;;;;4961314;28;20558;-79
2022/05/01 12:52:54;;;;;;;7.40;2.10;;;;;;;;;;4966328;28;20088;-81
2022/05/01 12:55:22;;;;;;;6.28;1.80;;;;;;;;;;4972969;28;20034;-80
2022/05/01 12:57:58;;;;;;;7.68;1.92;;;;;;;;;;4958326;28;20043;-80
2022/05/01 13:00:40;;;;;;;5.55;2.00;;;;;;;;;;4967293;28;20045;-80
2022/05/01 13:03:21;;;;;;;6.10;1.80;;;;;;;;;;4973248;28;20069;-80
2022/05/01 13:06:00;;;;;;;4.72;1.80;;;;;;;;;;4974293;28;20055;-80
2022/05/01 13:08:26;;;;;;;3.42;1.90;;;;;;;;;;4956657;28;20038;-80
2022/05/01 13:11:12;;;;;;;5.15;2.05;;;;;;;;;;4960339;28;20510;-80
2022/05/01 13:14:00;;;;;;;5.22;1.80;;;;;;;;;;4965048;28;20035;-82
2022/05/01 13:16:43;;;;;;;4.75;1.90;;;;;;;;;;4972847;28;20043;-80
2022/05/01 13:19:11;;;;;;;4.75;2.03;;;;;;;;;;4967527;28;20045;-80
2022/05/01 13:21:42;;;;;;;6.03;1.92;;;;;;;;;;4967291;28;20034;-80
2022/05/01 13:24:17;;;;;;;7.88;2.03;;;;;;;;;;4957979;28;20044;-80
2022/05/01 13:26:43;;;;;;;4.40;1.73;;;;;;;;;;4960011;28;20038;-79
2022/05/01 13:29:12;;;;;;;4.10;1.77;;;;;;;;;;4951563;28;20045;-80
2022/05/01 13:31:40;;;;;;;5.25;1.58;;;;;;;;;;4949962;28;20043;-80
2022/05/01 13:34:06;;;;;;;3.72;1.88;;;;;;;;;;4950032;28;20162;-80
2022/05/01 13:36:32;;;;;;;5.50;2.00;;;;;;;;;;4959650;28;20832;-80
2022/05/01 13:38:58;;;;;;;6.20;2.00;;;;;;;;;;4959995;28;20062;-80
2022/05/01 13:44:44;;;;;;;3.80;1.58;;;;;;;;;;4963423;28;20416;-79
2022/05/01 13:47:10;;;;;;;4.20;1.65;;;;;;;;;;4948974;28;20395;-80
2022/05/01 13:49:36;;;;;;;3.97;1.65;;;;;;;;;;4964359;28;20037;-81
2022/05/01 13:52:03;;;;;;;4.20;1.70;;;;;;;;;;4949839;28;20034;-80
2022/05/01 13:54:29;;;;;;;4.80;1.50;;;;;;;;;;4967190;28;20035;-81
2022/05/01 13:56:55;;;;;;;4.13;1.75;;;;;;;;;;4960574;28;20050;-80
2022/05/01 13:59:20;;;;;;;5.20;1.75;;;;;;;;;;4950693;28;20070;-80
2022/05/01 14:01:46;;;;;;;4.45;1.75;;;;;;;;;;4941050;28;20026;-80
2022/05/01 14:04:12;;;;;;;4.55;1.80;;;;;;;;;;4962928;28;20043;-80
2022/05/01 14:06:37;;;;;;;4.15;1.45;;;;;;;;;;4940669;28;20046;-81
2022/05/01 14:09:03;;;;;;;3.97;1.48;;;;;;;;;;4944227;28;20039;-81
2022/05/01 14:11:29;;;;;;;3.70;1.50;;;;;;;;;;4965709;28;20111;-80
2022/05/01 14:13:55;;;;;;;4.22;1.42;;;;;;;;;;4950360;28;20034;-80
2022/05/01 14:16:20;;;;;;;7.40;1.70;;;;;;;;;;4950658;28;20066;-80
2022/05/01 14:18:53;;;;;;;4.90;1.98;;;;;;;;;;4961574;28;20047;-79
2022/05/01 14:21:19;;;;;;;2.92;1.50;;;;;;;;;;4947078;28;20624;-79
2022/05/01 14:23:46;;;;;;;4.18;1.70;;;;;;;;;;4941549;28;20066;-80
2022/05/01 14:26:12;;;;;;;7.45;1.90;;;;;;;;;;4965670;28;20041;-80
2022/05/01 14:28:47;;;;;;;5.80;1.50;;;;;;;;;;4949617;28;20030;-82
2022/05/01 14:31:22;;;;;;;4.43;1.77;;;;;;;;;;4950570;28;20513;-81
2022/05/01 14:33:56;;;;;;;5.65;1.60;;;;;;;;;;4966510;28;20038;-79
2022/05/01 14:36:25;;;;;;;5.38;1.55;;;;;;;;;;4955447;28;20047;-81
2022/05/01 14:39:05;;;;;;;4.85;1.80;;;;;;;;;;4947216;28;20518;-82
2022/05/01 14:41:44;;;;;;;7.18;2.10;;;;;;;;;;4948152;28;20644;-82
2022/05/01 14:44:11;;;;;;;5.60;1.75;;;;;;;;;;4967372;28;20061;-81
2022/05/01 14:46:52;;;;;;;5.47;2.25;;;;;;;;;;4960112;28;20042;-81
2022/05/01 14:49:26;;;;;;;4.93;1.90;;;;;;;;;;4972165;28;20573;-81
2022/05/01 15:22:42;;;;;;;5.93;2.80;;;;;;;;;;4957168;28;20064;-79
2022/05/01 15:25:10;;;;;;;8.05;2.80;;;;;;;;;;4946596;28;20368;-79
2022/05/01 15:28:04;;;;;;;6.50;2.92;;;;;;;;;;4947655;28;20461;-79
2022/05/01 15:30:40;;;;;;;7.13;3.03;;;;;;;;;;4955101;28;20443;-80
2022/05/01 15:36:11;;;;;;;5.38;2.55;;;;;;;;;;4958976;28;20047;-80
2022/05/01 15:38:50;;;;;;;6.40;3.03;;;;;;;;;;4958809;28;20232;-79
2022/05/01 15:41:43;;;;;;;4.70;2.50;;;;;;;;;;4974235;28;20047;-80
2022/05/01 15:44:15;;;;;;;5.20;3.00;;;;;;;;;;4959927;28;20050;-79
2022/05/01 15:46:55;;;;;;;10.75;3.80;;;;;;;;;;4964976;28;20050;-80
2022/05/01 15:55:01;;;;;;;7.05;3.15;;;;;;;;;;4960468;28;20033;-82
2022/05/01 15:57:30;;;;;;;6.68;3.03;;;;;;;;;;4952061;28;20405;-80
2022/05/01 15:59:57;;;;;;;5.90;2.92;;;;;;;;;;4951863;28;20042;-80
2022/05/01 16:02:24;;;;;;;6.70;2.60;;;;;;;;;;4965747;28;20042;-80
2022/05/01 16:04:52;;;;;;;6.30;2.92;;;;;;;;;;4946341;28;20124;-81
2022/05/01 16:07:22;;;;;;;;;;;;;;;;;;4948569;28;20101;-80
2022/05/01 16:10:09;;;;;;;5.00;2.80;;;;;;;;;;4968827;28;20630;-80
2022/05/01 16:13:00;;;;;;;5.60;2.90;;;;;;;;;;4976470;28;20039;-82
2022/05/01 16:15:42;;;;;;;7.28;2.92;;;;;;;;;;4957403;28;20137;-81
2022/05/01 16:18:28;;;;;;;5.13;2.88;;;;;;;;;;4968536;28;20501;-81
2022/05/01 16:21:02;;;;;;;11.82;3.38;;;;;;;;;;4965979;28;20108;-81
2022/05/01 16:23:41;;;;;;;6.45;3.05;;;;;;;;;;4951272;28;20526;-80